sensor_id;sensor_type;location;lat;lon;timestamp;P1;durP1;ratioP1;P2;durP2;ratioP2
75593;SDS011;64176;49.156;7.810;2023-11-21T00:02:34;4.72;;;2.00;;
75593;SDS011;64176;49.156;7.810;2023-11-21T00:05:18;1.95;;;1.13;;
75593;SDS011;64176;49.156;7.810;2023-11-21T00:08:02;2.83;;;1.60;;
75593;SDS011;64176;49.156;7.810;2023-11-21T00:10:46;2.75;;;1.42;;
75593;SDS011;64176;49.156;7.810;2023-11-21T00:13:32;2.38;;;1.10;;
75593;SDS011;64176;49.156;7.810;2023-11-21T00:16:16;4.03;;;1.42;;
75593;SDS011;64176;49.156;7.810;2023-11-21T00:19:00;2.83;;;1.90;;
75593;SDS011;64176;49.156;7.810;2023-11-21T00:21:44;3.97;;;1.00;;
75593;SDS011;64176;49.156;7.810;2023-11-21T00:24:28;5.22;;;1.30;;
75593;SDS011;64176;49.156;7.810;2023-11-21T00:27:15;3.38;;;1.50;;
75593;SDS011;64176;49.156;7.810;2023-11-21T00:29:59;3.50;;;1.60;;
75593;SDS011;64176;49.156;7.810;2023-11-21T00:32:50;4.78;;;3.33;;
75593;SDS011;64176;49.156;7.810;2023-11-21T00:35:37;3.42;;;1.10;;
75593;SDS011;64176;49.156;7.810;2023-11-21T00:38:21;1.52;;;0.93;;
75593;SDS011;64176;49.156;7.810;2023-11-21T00:41:05;9.82;;;1.80;;
75593;SDS011;64176;49.156;7.810;2023-11-21T00:43:49;1.60;;;1.25;;
75593;SDS011;64176;49.156;7.810;2023-11-21T00:46:34;1.23;;;0.80;;
75593;SDS011;64176;49.156;7.810;2023-11-21T00:49:20;2.20;;;1.13;;
75593;SDS011;64176;49.156;7.810;2023-11-21T00:52:07;1.88;;;1.02;;
75593;SDS011;64176;49.156;7.810;2023-11-21T00:54:51;2.95;;;1.40;;
75593;SDS011;64176;49.156;7.810;2023-11-21T00:57:35;0.90;;;0.80;;
75593;SDS011;64176;49.156;7.810;2023-11-21T01:00:19;4.53;;;1.40;;
75593;SDS011;64176;49.156;7.810;2023-11-21T01:03:03;3.72;;;1.10;;
75593;SDS011;64176;49.156;7.810;2023-11-21T01:05:47;1.70;;;1.05;;
75593;SDS011;64176;49.156;7.810;2023-11-21T01:08:34;3.58;;;1.30;;
75593;SDS011;64176;49.156;7.810;2023-11-21T01:11:20;1.13;;;0.70;;
75593;SDS011;64176;49.156;7.810;2023-11-21T01:14:05;2.42;;;0.90;;
75593;SDS011;64176;49.156;7.810;2023-11-21T01:16:50;3.70;;;1.15;;
75593;SDS011;64176;49.156;7.810;2023-11-21T01:19:34;1.38;;;0.90;;
75593;SDS011;64176;49.156;7.810;2023-11-21T01:22:18;1.83;;;0.93;;
75593;SDS011;64176;49.156;7.810;2023-11-21T01:25:06;5.43;;;1.17;;
75593;SDS011;64176;49.156;7.810;2023-11-21T01:27:51;1.10;;;0.90;;
75593;SDS011;64176;49.156;7.810;2023-11-21T01:30:35;1.38;;;0.85;;
75593;SDS011;64176;49.156;7.810;2023-11-21T01:33:19;5.03;;;1.23;;
75593;SDS011;64176;49.156;7.810;2023-11-21T01:36:06;0.98;;;0.82;;
75593;SDS011;64176;49.156;7.810;2023-11-21T01:38:50;1.00;;;0.70;;
75593;SDS011;64176;49.156;7.810;2023-11-21T01:41:34;1.70;;;0.90;;
75593;SDS011;64176;49.156;7.810;2023-11-21T01:44:22;1.35;;;0.90;;
75593;SDS011;64176;49.156;7.810;2023-11-21T01:47:06;1.55;;;0.70;;
75593;SDS011;64176;49.156;7.810;2023-11-21T01:49:52;3.58;;;1.25;;
75593;SDS011;64176;49.156;7.810;2023-11-21T01:52:36;2.95;;;1.55;;
75593;SDS011;64176;49.156;7.810;2023-11-21T01:55:22;2.00;;;0.90;;
75593;SDS011;64176;49.156;7.810;2023-11-21T01:58:06;1.50;;;0.80;;
75593;SDS011;64176;49.156;7.810;2023-11-21T02:00:52;2.38;;;0.73;;
75593;SDS011;64176;49.156;7.810;2023-11-21T02:03:39;3.40;;;1.10;;
75593;SDS011;64176;49.156;7.810;2023-11-21T02:06:23;2.45;;;1.20;;
75593;SDS011;64176;49.156;7.810;2023-11-21T02:09:09;1.35;;;0.77;;
75593;SDS011;64176;49.156;7.810;2023-11-21T02:11:54;1.55;;;1.00;;
75593;SDS011;64176;49.156;7.810;2023-11-21T02:14:38;4.82;;;1.42;;
75593;SDS011;64176;49.156;7.810;2023-11-21T02:17:22;5.90;;;1.30;;
75593;SDS011;64176;49.156;7.810;2023-11-21T02:20:06;2.67;;;1.10;;
75593;SDS011;64176;49.156;7.810;2023-11-21T02:22:54;2.20;;;0.80;;
75593;SDS011;64176;49.156;7.810;2023-11-21T02:25:42;2.72;;;1.35;;
75593;SDS011;64176;49.156;7.810;2023-11-21T02:28:26;2.25;;;1.13;;
75593;SDS011;64176;49.156;7.810;2023-11-21T02:31:10;3.30;;;1.20;;
75593;SDS011;64176;49.156;7.810;2023-11-21T02:33:56;3.92;;;1.42;;
75593;SDS011;64176;49.156;7.810;2023-11-21T02:36:40;1.98;;;1.20;;
75593;SDS011;64176;49.156;7.810;2023-11-21T02:39:26;4.88;;;1.25;;
75593;SDS011;64176;49.156;7.810;2023-11-21T02:42:10;2.58;;;1.58;;
75593;SDS011;64176;49.156;7.810;2023-11-21T02:44:55;6.93;;;1.52;;
75593;SDS011;64176;49.156;7.810;2023-11-21T02:47:40;2.72;;;1.20;;
75593;SDS011;64176;49.156;7.810;2023-11-21T02:50:26;4.65;;;1.23;;
75593;SDS011;64176;49.156;7.810;2023-11-21T02:53:10;1.30;;;1.10;;
75593;SDS011;64176;49.156;7.810;2023-11-21T02:55:54;3.28;;;1.88;;
75593;SDS011;64176;49.156;7.810;2023-11-21T02:58:41;2.20;;;1.17;;
75593;SDS011;64176;49.156;7.810;2023-11-21T03:01:30;1.30;;;1.05;;
75593;SDS011;64176;49.156;7.810;2023-11-21T03:04:14;3.70;;;1.35;;
75593;SDS011;64176;49.156;7.810;2023-11-21T03:07:01;2.25;;;1.45;;
75593;SDS011;64176;49.156;7.810;2023-11-21T03:09:45;2.20;;;1.35;;
75593;SDS011;64176;49.156;7.810;2023-11-21T03:12:32;2.15;;;1.30;;
75593;SDS011;64176;49.156;7.810;2023-11-21T03:15:16;3.67;;;1.13;;
75593;SDS011;64176;49.156;7.810;2023-11-21T03:18:00;2.70;;;1.40;;
75593;SDS011;64176;49.156;7.810;2023-11-21T03:20:45;2.92;;;1.50;;
75593;SDS011;64176;49.156;7.810;2023-11-21T03:23:32;2.72;;;1.42;;
75593;SDS011;64176;49.156;7.810;2023-11-21T03:26:16;3.33;;;1.52;;
75593;SDS011;64176;49.156;7.810;2023-11-21T03:29:00;4.80;;;1.60;;
75593;SDS011;64176;49.156;7.810;2023-11-21T03:31:44;5.18;;;1.70;;
75593;SDS011;64176;49.156;7.810;2023-11-21T03:34:28;2.45;;;1.58;;
75593;SDS011;64176;49.156;7.810;2023-11-21T03:37:12;5.88;;;1.73;;
75593;SDS011;64176;49.156;7.810;2023-11-21T03:39:56;3.33;;;1.33;;
75593;SDS011;64176;49.156;7.810;2023-11-21T03:42:43;1.75;;;1.23;;
75593;SDS011;64176;49.156;7.810;2023-11-21T03:45:27;3.63;;;1.40;;
75593;SDS011;64176;49.156;7.810;2023-11-21T03:48:12;2.47;;;1.63;;
75593;SDS011;64176;49.156;7.810;2023-11-21T03:51:00;5.32;;;1.60;;
75593;SDS011;64176;49.156;7.810;2023-11-21T03:53:44;4.45;;;1.40;;
75593;SDS011;64176;49.156;7.810;2023-11-21T03:56:28;2.28;;;1.50;;
75593;SDS011;64176;49.156;7.810;2023-11-21T03:59:12;5.03;;;1.90;;
75593;SDS011;64176;49.156;7.810;2023-11-21T04:01:56;6.22;;;2.03;;
75593;SDS011;64176;49.156;7.810;2023-11-21T04:04:40;4.43;;;1.65;;
75593;SDS011;64176;49.156;7.810;2023-11-21T04:07:25;2.63;;;1.55;;
75593;SDS011;64176;49.156;7.810;2023-11-21T04:10:09;2.30;;;1.63;;
75593;SDS011;64176;49.156;7.810;2023-11-21T04:12:56;2.67;;;1.52;;
75593;SDS011;64176;49.156;7.810;2023-11-21T04:15:40;4.60;;;1.60;;
75593;SDS011;64176;49.156;7.810;2023-11-21T04:18:27;4.78;;;2.20;;
75593;SDS011;64176;49.156;7.810;2023-11-21T04:21:11;4.75;;;2.83;;
75593;SDS011;64176;49.156;7.810;2023-11-21T04:23:55;3.20;;;2.05;;
75593;SDS011;64176;49.156;7.810;2023-11-21T04:26:38;2.85;;;1.85;;
75593;SDS011;64176;49.156;7.810;2023-11-21T04:29:22;7.68;;;2.22;;
75593;SDS011;64176;49.156;7.810;2023-11-21T04:32:06;3.55;;;1.95;;
75593;SDS011;64176;49.156;7.810;2023-11-21T04:34:51;2.00;;;1.70;;
75593;SDS011;64176;49.156;7.810;2023-11-21T04:37:35;2.83;;;1.77;;
75593;SDS011;64176;49.156;7.810;2023-11-21T04:40:19;2.22;;;1.50;;
75593;SDS011;64176;49.156;7.810;2023-11-21T04:43:04;3.47;;;1.48;;
75593;SDS011;64176;49.156;7.810;2023-11-21T04:45:48;6.57;;;2.20;;
75593;SDS011;64176;49.156;7.810;2023-11-21T04:48:32;3.85;;;1.55;;
75593;SDS011;64176;49.156;7.810;2023-11-21T04:51:16;4.90;;;1.83;;
75593;SDS011;64176;49.156;7.810;2023-11-21T04:54:03;4.15;;;3.03;;
75593;SDS011;64176;49.156;7.810;2023-11-21T04:56:49;4.28;;;1.95;;
75593;SDS011;64176;49.156;7.810;2023-11-21T04:59:34;3.58;;;1.63;;
75593;SDS011;64176;49.156;7.810;2023-11-21T05:02:18;2.50;;;1.80;;
75593;SDS011;64176;49.156;7.810;2023-11-21T05:05:03;4.45;;;1.92;;
75593;SDS011;64176;49.156;7.810;2023-11-21T05:07:49;6.68;;;2.53;;
75593;SDS011;64176;49.156;7.810;2023-11-21T05:10:33;6.50;;;3.10;;
75593;SDS011;64176;49.156;7.810;2023-11-21T05:13:22;4.25;;;3.40;;
75593;SDS011;64176;49.156;7.810;2023-11-21T05:16:10;4.47;;;2.83;;
75593;SDS011;64176;49.156;7.810;2023-11-21T05:18:54;3.92;;;3.50;;
75593;SDS011;64176;49.156;7.810;2023-11-21T05:21:46;7.13;;;5.18;;
75593;SDS011;64176;49.156;7.810;2023-11-21T05:24:33;8.68;;;5.03;;
75593;SDS011;64176;49.156;7.810;2023-11-21T05:27:19;7.75;;;5.57;;
75593;SDS011;64176;49.156;7.810;2023-11-21T05:30:04;6.45;;;4.85;;
75593;SDS011;64176;49.156;7.810;2023-11-21T05:32:49;5.65;;;4.20;;
75593;SDS011;64176;49.156;7.810;2023-11-21T05:35:33;8.55;;;5.25;;
75593;SDS011;64176;49.156;7.810;2023-11-21T05:38:20;8.18;;;5.63;;
75593;SDS011;64176;49.156;7.810;2023-11-21T05:41:05;5.72;;;3.55;;
75593;SDS011;64176;49.156;7.810;2023-11-21T05:43:50;5.53;;;3.50;;
75593;SDS011;64176;49.156;7.810;2023-11-21T05:46:34;7.07;;;2.92;;
75593;SDS011;64176;49.156;7.810;2023-11-21T05:49:20;5.70;;;3.83;;
75593;SDS011;64176;49.156;7.810;2023-11-21T05:52:10;5.95;;;3.70;;
75593;SDS011;64176;49.156;7.810;2023-11-21T05:54:56;7.60;;;4.43;;
75593;SDS011;64176;49.156;7.810;2023-11-21T05:57:41;9.35;;;5.32;;
75593;SDS011;64176;49.156;7.810;2023-11-21T06:00:26;8.00;;;5.13;;
75593;SDS011;64176;49.156;7.810;2023-11-21T06:03:11;10.52;;;6.57;;
75593;SDS011;64176;49.156;7.810;2023-11-21T06:05:56;9.20;;;5.78;;
75593;SDS011;64176;49.156;7.810;2023-11-21T06:08:40;8.25;;;4.88;;
75593;SDS011;64176;49.156;7.810;2023-11-21T06:11:24;9.00;;;5.28;;
75593;SDS011;64176;49.156;7.810;2023-11-21T06:14:08;4.18;;;3.28;;
75593;SDS011;64176;49.156;7.810;2023-11-21T06:16:53;4.60;;;3.78;;
75593;SDS011;64176;49.156;7.810;2023-11-21T06:19:39;3.60;;;2.85;;
75593;SDS011;64176;49.156;7.810;2023-11-21T06:22:25;5.78;;;3.75;;
75593;SDS011;64176;49.156;7.810;2023-11-21T06:25:10;7.13;;;4.60;;
75593;SDS011;64176;49.156;7.810;2023-11-21T06:27:59;8.02;;;4.10;;
75593;SDS011;64176;49.156;7.810;2023-11-21T06:30:45;7.32;;;4.82;;
75593;SDS011;64176;49.156;7.810;2023-11-21T06:33:29;7.97;;;4.60;;
75593;SDS011;64176;49.156;7.810;2023-11-21T06:36:13;6.45;;;4.43;;
75593;SDS011;64176;49.156;7.810;2023-11-21T06:38:57;8.18;;;5.05;;
75593;SDS011;64176;49.156;7.810;2023-11-21T06:41:41;8.18;;;6.18;;
75593;SDS011;64176;49.156;7.810;2023-11-21T06:44:25;10.23;;;6.57;;
75593;SDS011;64176;49.156;7.810;2023-11-21T06:47:09;10.20;;;7.07;;
75593;SDS011;64176;49.156;7.810;2023-11-21T06:49:52;13.27;;;7.70;;
75593;SDS011;64176;49.156;7.810;2023-11-21T06:52:37;7.43;;;5.50;;
75593;SDS011;64176;49.156;7.810;2023-11-21T06:55:22;7.15;;;4.80;;
75593;SDS011;64176;49.156;7.810;2023-11-21T06:58:06;11.48;;;4.90;;
75593;SDS011;64176;49.156;7.810;2023-11-21T07:00:49;7.88;;;4.63;;
75593;SDS011;64176;49.156;7.810;2023-11-21T07:03:36;9.35;;;4.55;;
75593;SDS011;64176;49.156;7.810;2023-11-21T07:06:23;6.55;;;4.85;;
75593;SDS011;64176;49.156;7.810;2023-11-21T07:09:07;6.55;;;4.35;;
75593;SDS011;64176;49.156;7.810;2023-11-21T07:11:55;5.93;;;3.92;;
75593;SDS011;64176;49.156;7.810;2023-11-21T07:14:41;4.65;;;3.13;;
75593;SDS011;64176;49.156;7.810;2023-11-21T07:17:28;7.07;;;5.53;;
75593;SDS011;64176;49.156;7.810;2023-11-21T07:20:12;5.28;;;3.80;;
75593;SDS011;64176;49.156;7.810;2023-11-21T07:22:57;6.30;;;2.90;;
75593;SDS011;64176;49.156;7.810;2023-11-21T07:25:42;5.15;;;3.53;;
75593;SDS011;64176;49.156;7.810;2023-11-21T07:28:26;5.95;;;3.00;;
75593;SDS011;64176;49.156;7.810;2023-11-21T07:31:10;3.53;;;2.78;;
75593;SDS011;64176;49.156;7.810;2023-11-21T07:33:54;4.00;;;3.22;;
75593;SDS011;64176;49.156;7.810;2023-11-21T07:36:41;1.38;;;1.17;;
75593;SDS011;64176;49.156;7.810;2023-11-21T07:39:26;1.70;;;1.30;;
75593;SDS011;64176;49.156;7.810;2023-11-21T07:42:10;2.35;;;1.90;;
75593;SDS011;64176;49.156;7.810;2023-11-21T07:44:54;6.15;;;3.22;;
75593;SDS011;64176;49.156;7.810;2023-11-21T07:47:38;12.23;;;6.72;;
75593;SDS011;64176;49.156;7.810;2023-11-21T07:50:22;5.22;;;3.15;;
75593;SDS011;64176;49.156;7.810;2023-11-21T07:53:10;3.55;;;1.77;;
75593;SDS011;64176;49.156;7.810;2023-11-21T07:55:54;4.63;;;1.38;;
75593;SDS011;64176;49.156;7.810;2023-11-21T07:58:38;1.77;;;1.20;;
75593;SDS011;64176;49.156;7.810;2023-11-21T08:01:22;3.35;;;1.85;;
75593;SDS011;64176;49.156;7.810;2023-11-21T08:04:08;4.25;;;2.10;;
75593;SDS011;64176;49.156;7.810;2023-11-21T08:06:52;7.20;;;3.80;;
75593;SDS011;64176;49.156;7.810;2023-11-21T08:09:36;2.90;;;1.98;;
75593;SDS011;64176;49.156;7.810;2023-11-21T08:12:20;3.05;;;1.63;;
75593;SDS011;64176;49.156;7.810;2023-11-21T08:15:08;4.15;;;1.65;;
75593;SDS011;64176;49.156;7.810;2023-11-21T08:17:52;1.52;;;1.20;;
75593;SDS011;64176;49.156;7.810;2023-11-21T08:20:37;3.22;;;1.35;;
75593;SDS011;64176;49.156;7.810;2023-11-21T08:23:23;1.77;;;1.02;;
75593;SDS011;64176;49.156;7.810;2023-11-21T08:26:10;2.10;;;1.15;;
75593;SDS011;64176;49.156;7.810;2023-11-21T08:28:54;1.67;;;1.45;;
75593;SDS011;64176;49.156;7.810;2023-11-21T08:31:40;2.25;;;1.00;;
75593;SDS011;64176;49.156;7.810;2023-11-21T08:34:24;2.22;;;1.67;;
75593;SDS011;64176;49.156;7.810;2023-11-21T08:37:08;5.72;;;2.58;;
75593;SDS011;64176;49.156;7.810;2023-11-21T08:39:57;3.00;;;1.92;;
75593;SDS011;64176;49.156;7.810;2023-11-21T08:42:43;4.15;;;2.15;;
75593;SDS011;64176;49.156;7.810;2023-11-21T08:45:29;2.17;;;1.55;;
75593;SDS011;64176;49.156;7.810;2023-11-21T08:48:13;2.58;;;1.50;;
75593;SDS011;64176;49.156;7.810;2023-11-21T08:50:57;1.58;;;1.10;;
75593;SDS011;64176;49.156;7.810;2023-11-21T08:53:41;1.13;;;1.00;;
75593;SDS011;64176;49.156;7.810;2023-11-21T08:56:25;2.67;;;1.80;;
75593;SDS011;64176;49.156;7.810;2023-11-21T08:59:09;2.28;;;1.60;;
75593;SDS011;64176;49.156;7.810;2023-11-21T09:01:53;3.03;;;1.48;;
75593;SDS011;64176;49.156;7.810;2023-11-21T09:04:39;2.53;;;1.10;;
75593;SDS011;64176;49.156;7.810;2023-11-21T09:07:23;1.48;;;0.95;;
75593;SDS011;64176;49.156;7.810;2023-11-21T09:10:10;1.55;;;0.95;;
75593;SDS011;64176;49.156;7.810;2023-11-21T09:12:57;3.03;;;2.60;;
75593;SDS011;64176;49.156;7.810;2023-11-21T09:15:47;3.53;;;2.83;;
75593;SDS011;64176;49.156;7.810;2023-11-21T09:18:36;10.38;;;6.43;;
75593;SDS011;64176;49.156;7.810;2023-11-21T09:21:20;7.32;;;4.97;;
75593;SDS011;64176;49.156;7.810;2023-11-21T09:24:07;5.05;;;2.60;;
75593;SDS011;64176;49.156;7.810;2023-11-21T09:26:52;2.92;;;1.50;;
75593;SDS011;64176;49.156;7.810;2023-11-21T09:29:39;2.30;;;1.10;;
75593;SDS011;64176;49.156;7.810;2023-11-21T09:32:23;3.58;;;1.25;;
75593;SDS011;64176;49.156;7.810;2023-11-21T09:35:07;2.58;;;1.13;;
75593;SDS011;64176;49.156;7.810;2023-11-21T09:37:55;1.83;;;1.40;;
75593;SDS011;64176;49.156;7.810;2023-11-21T09:40:39;1.85;;;0.80;;
75593;SDS011;64176;49.156;7.810;2023-11-21T09:43:23;4.85;;;1.65;;
75593;SDS011;64176;49.156;7.810;2023-11-21T09:46:10;2.78;;;1.20;;
75593;SDS011;64176;49.156;7.810;2023-11-21T09:49:02;0.90;;;0.82;;
75593;SDS011;64176;49.156;7.810;2023-11-21T09:51:49;1.15;;;0.60;;
75593;SDS011;64176;49.156;7.810;2023-11-21T09:54:35;1.38;;;1.00;;
75593;SDS011;64176;49.156;7.810;2023-11-21T09:57:20;1.73;;;1.15;;
75593;SDS011;64176;49.156;7.810;2023-11-21T10:00:08;1.85;;;1.20;;
75593;SDS011;64176;49.156;7.810;2023-11-21T10:02:55;0.85;;;0.70;;
75593;SDS011;64176;49.156;7.810;2023-11-21T10:05:46;0.73;;;0.63;;
75593;SDS011;64176;49.156;7.810;2023-11-21T10:08:40;1.30;;;0.85;;
75593;SDS011;64176;49.156;7.810;2023-11-21T10:11:24;2.33;;;1.27;;
75593;SDS011;64176;49.156;7.810;2023-11-21T10:14:11;1.48;;;1.10;;
75593;SDS011;64176;49.156;7.810;2023-11-21T10:16:57;1.95;;;0.95;;
75593;SDS011;64176;49.156;7.810;2023-11-21T10:19:42;4.90;;;1.55;;
75593;SDS011;64176;49.156;7.810;2023-11-21T10:22:26;2.90;;;1.63;;
75593;SDS011;64176;49.156;7.810;2023-11-21T10:25:10;4.18;;;3.72;;
75593;SDS011;64176;49.156;7.810;2023-11-21T10:27:58;1.52;;;1.30;;
75593;SDS011;64176;49.156;7.810;2023-11-21T10:30:48;1.98;;;1.60;;
75593;SDS011;64176;49.156;7.810;2023-11-21T10:33:32;3.00;;;1.17;;
75593;SDS011;64176;49.156;7.810;2023-11-21T10:36:26;2.28;;;1.27;;
75593;SDS011;64176;49.156;7.810;2023-11-21T10:39:14;1.27;;;0.88;;
75593;SDS011;64176;49.156;7.810;2023-11-21T10:42:01;7.15;;;4.15;;
75593;SDS011;64176;49.156;7.810;2023-11-21T10:44:45;1.95;;;1.75;;
75593;SDS011;64176;49.156;7.810;2023-11-21T10:47:30;3.35;;;3.13;;
75593;SDS011;64176;49.156;7.810;2023-11-21T10:50:19;1.65;;;1.30;;
75593;SDS011;64176;49.156;7.810;2023-11-21T10:53:04;3.42;;;2.92;;
75593;SDS011;64176;49.156;7.810;2023-11-21T10:55:49;6.60;;;6.00;;
75593;SDS011;64176;49.156;7.810;2023-11-21T10:58:33;6.15;;;5.65;;
75593;SDS011;64176;49.156;7.810;2023-11-21T11:01:19;4.22;;;2.20;;
75593;SDS011;64176;49.156;7.810;2023-11-21T11:04:07;2.10;;;0.88;;
75593;SDS011;64176;49.156;7.810;2023-11-21T11:06:58;0.70;;;0.70;;
75593;SDS011;64176;49.156;7.810;2023-11-21T11:09:47;1.10;;;0.70;;
75593;SDS011;64176;49.156;7.810;2023-11-21T11:12:31;1.00;;;0.80;;
75593;SDS011;64176;49.156;7.810;2023-11-21T11:15:16;2.03;;;0.80;;
75593;SDS011;64176;49.156;7.810;2023-11-21T11:18:00;1.40;;;1.20;;
75593;SDS011;64176;49.156;7.810;2023-11-21T11:20:46;0.82;;;0.70;;
75593;SDS011;64176;49.156;7.810;2023-11-21T11:23:43;0.95;;;0.60;;
75593;SDS011;64176;49.156;7.810;2023-11-21T11:36:34;3.58;;;1.45;;
75593;SDS011;64176;49.156;7.810;2023-11-21T11:39:26;0.50;;;0.50;;
75593;SDS011;64176;49.156;7.810;2023-11-21T11:42:14;0.82;;;0.70;;
75593;SDS011;64176;49.156;7.810;2023-11-21T11:45:01;1.35;;;1.20;;
75593;SDS011;64176;49.156;7.810;2023-11-21T11:47:48;1.23;;;1.13;;
75593;SDS011;64176;49.156;7.810;2023-11-21T11:50:32;2.13;;;1.23;;
75593;SDS011;64176;49.156;7.810;2023-11-21T11:53:19;5.97;;;0.73;;
75593;SDS011;64176;49.156;7.810;2023-11-21T11:59:09;1.23;;;1.02;;
75593;SDS011;64176;49.156;7.810;2023-11-21T12:01:53;1.63;;;1.52;;
75593;SDS011;64176;49.156;7.810;2023-11-21T12:04:42;2.53;;;2.03;;
75593;SDS011;64176;49.156;7.810;2023-11-21T12:07:38;1.40;;;1.30;;
75593;SDS011;64176;49.156;7.810;2023-11-21T12:10:26;0.95;;;0.82;;
75593;SDS011;64176;49.156;7.810;2023-11-21T12:13:11;3.03;;;1.60;;
75593;SDS011;64176;49.156;7.810;2023-11-21T12:15:58;1.50;;;1.30;;
75593;SDS011;64176;49.156;7.810;2023-11-21T12:18:42;0.88;;;0.70;;
75593;SDS011;64176;49.156;7.810;2023-11-21T12:21:26;3.03;;;2.72;;
75593;SDS011;64176;49.156;7.810;2023-11-21T12:24:14;4.65;;;2.53;;
75593;SDS011;64176;49.156;7.810;2023-11-21T12:27:00;2.13;;;1.65;;
75593;SDS011;64176;49.156;7.810;2023-11-21T12:29:44;6.20;;;0.90;;
75593;SDS011;64176;49.156;7.810;2023-11-21T12:32:28;0.73;;;0.47;;
75593;SDS011;64176;49.156;7.810;2023-11-21T12:35:12;2.05;;;0.98;;
75593;SDS011;64176;49.156;7.810;2023-11-21T12:37:59;1.30;;;0.70;;
75593;SDS011;64176;49.156;7.810;2023-11-21T12:40:46;1.98;;;1.08;;
75593;SDS011;64176;49.156;7.810;2023-11-21T12:43:30;3.05;;;1.90;;
75593;SDS011;64176;49.156;7.810;2023-11-21T12:46:14;1.67;;;0.93;;
75593;SDS011;64176;49.156;7.810;2023-11-21T12:48:59;0.85;;;0.65;;
75593;SDS011;64176;49.156;7.810;2023-11-21T12:51:46;4.88;;;1.30;;
75593;SDS011;64176;49.156;7.810;2023-11-21T12:54:34;7.38;;;3.15;;
75593;SDS011;64176;49.156;7.810;2023-11-21T12:57:19;1.98;;;1.40;;
75593;SDS011;64176;49.156;7.810;2023-11-21T13:00:03;2.55;;;1.20;;
75593;SDS011;64176;49.156;7.810;2023-11-21T13:05:46;1.55;;;1.10;;
75593;SDS011;64176;49.156;7.810;2023-11-21T13:08:34;3.95;;;2.58;;
75593;SDS011;64176;49.156;7.810;2023-11-21T13:11:22;53.88;;;28.15;;
75593;SDS011;64176;49.156;7.810;2023-11-21T13:14:11;12.63;;;8.90;;
75593;SDS011;64176;49.156;7.810;2023-11-21T13:16:58;4.47;;;2.83;;
75593;SDS011;64176;49.156;7.810;2023-11-21T13:19:42;5.45;;;2.78;;
75593;SDS011;64176;49.156;7.810;2023-11-21T13:22:26;3.10;;;1.05;;
75593;SDS011;64176;49.156;7.810;2023-11-21T13:25:10;1.23;;;0.98;;
75593;SDS011;64176;49.156;7.810;2023-11-21T13:30:38;1.05;;;0.70;;
75593;SDS011;64176;49.156;7.810;2023-11-21T13:33:23;1.88;;;0.60;;
75593;SDS011;64176;49.156;7.810;2023-11-21T13:36:11;3.85;;;2.40;;
75593;SDS011;64176;49.156;7.810;2023-11-21T13:38:57;49.33;;;26.17;;
75593;SDS011;64176;49.156;7.810;2023-11-21T13:41:42;16.38;;;7.13;;
75593;SDS011;64176;49.156;7.810;2023-11-21T13:44:26;19.33;;;6.72;;
75593;SDS011;64176;49.156;7.810;2023-11-21T13:47:12;19.23;;;8.70;;
75593;SDS011;64176;49.156;7.810;2023-11-21T13:49:57;17.00;;;5.55;;
75593;SDS011;64176;49.156;7.810;2023-11-21T13:52:41;5.95;;;2.42;;
75593;SDS011;64176;49.156;7.810;2023-11-21T13:55:25;2.80;;;1.65;;
75593;SDS011;64176;49.156;7.810;2023-11-21T13:58:09;2.42;;;1.00;;
75593;SDS011;64176;49.156;7.810;2023-11-21T14:00:55;3.55;;;1.00;;
75593;SDS011;64176;49.156;7.810;2023-11-21T14:03:40;3.97;;;1.60;;
75593;SDS011;64176;49.156;7.810;2023-11-21T14:06:35;5.68;;;2.38;;
75593;SDS011;64176;49.156;7.810;2023-11-21T14:09:30;2.50;;;0.90;;
75593;SDS011;64176;49.156;7.810;2023-11-21T14:12:22;1.85;;;1.13;;
75593;SDS011;64176;49.156;7.810;2023-11-21T14:15:07;2.05;;;1.08;;
75593;SDS011;64176;49.156;7.810;2023-11-21T14:17:53;1.20;;;0.70;;
75593;SDS011;64176;49.156;7.810;2023-11-21T14:20:43;1.20;;;0.75;;
75593;SDS011;64176;49.156;7.810;2023-11-21T14:23:28;5.82;;;3.10;;
75593;SDS011;64176;49.156;7.810;2023-11-21T14:26:14;2.47;;;1.70;;
75593;SDS011;64176;49.156;7.810;2023-11-21T14:28:59;4.85;;;2.00;;
75593;SDS011;64176;49.156;7.810;2023-11-21T14:31:43;2.42;;;1.10;;
75593;SDS011;64176;49.156;7.810;2023-11-21T14:34:27;2.78;;;0.90;;
75593;SDS011;64176;49.156;7.810;2023-11-21T14:37:11;1.27;;;1.02;;
75593;SDS011;64176;49.156;7.810;2023-11-21T14:39:57;4.20;;;1.27;;
75593;SDS011;64176;49.156;7.810;2023-11-21T14:42:42;1.88;;;0.80;;
75593;SDS011;64176;49.156;7.810;2023-11-21T14:45:26;4.50;;;0.88;;
75593;SDS011;64176;49.156;7.810;2023-11-21T14:48:13;9.38;;;2.85;;
75593;SDS011;64176;49.156;7.810;2023-11-21T14:51:10;2.67;;;1.30;;
75593;SDS011;64176;49.156;7.810;2023-11-21T14:54:11;2.15;;;1.20;;
75593;SDS011;64176;49.156;7.810;2023-11-21T14:56:55;2.88;;;1.40;;
75593;SDS011;64176;49.156;7.810;2023-11-21T14:59:46;4.53;;;2.50;;
75593;SDS011;64176;49.156;7.810;2023-11-21T15:02:33;7.20;;;3.25;;
75593;SDS011;64176;49.156;7.810;2023-11-21T15:05:33;11.05;;;4.93;;
75593;SDS011;64176;49.156;7.810;2023-11-21T15:08:22;13.45;;;6.72;;
75593;SDS011;64176;49.156;7.810;2023-11-21T15:11:15;10.13;;;5.13;;
75593;SDS011;64176;49.156;7.810;2023-11-21T15:14:00;9.25;;;5.43;;
75593;SDS011;64176;49.156;7.810;2023-11-21T15:16:44;4.63;;;3.00;;
75593;SDS011;64176;49.156;7.810;2023-11-21T15:19:34;6.30;;;2.97;;
75593;SDS011;64176;49.156;7.810;2023-11-21T15:22:20;10.07;;;5.03;;
75593;SDS011;64176;49.156;7.810;2023-11-21T15:25:05;9.10;;;4.65;;
75593;SDS011;64176;49.156;7.810;2023-11-21T15:27:53;10.82;;;5.70;;
75593;SDS011;64176;49.156;7.810;2023-11-21T15:30:37;12.57;;;6.10;;
75593;SDS011;64176;49.156;7.810;2023-11-21T15:33:24;22.33;;;10.90;;
75593;SDS011;64176;49.156;7.810;2023-11-21T15:36:11;10.60;;;5.57;;
75593;SDS011;64176;49.156;7.810;2023-11-21T15:38:56;10.80;;;6.55;;
75593;SDS011;64176;49.156;7.810;2023-11-21T15:41:44;11.15;;;5.75;;
75593;SDS011;64176;49.156;7.810;2023-11-21T15:44:30;11.32;;;6.18;;
75593;SDS011;64176;49.156;7.810;2023-11-21T15:47:16;33.35;;;19.83;;
75593;SDS011;64176;49.156;7.810;2023-11-21T15:50:00;23.90;;;13.05;;
75593;SDS011;64176;49.156;7.810;2023-11-21T15:52:47;27.10;;;17.15;;
75593;SDS011;64176;49.156;7.810;2023-11-21T15:55:31;17.13;;;12.00;;
75593;SDS011;64176;49.156;7.810;2023-11-21T15:58:20;8.90;;;5.93;;
75593;SDS011;64176;49.156;7.810;2023-11-21T16:01:04;10.18;;;6.07;;
75593;SDS011;64176;49.156;7.810;2023-11-21T16:03:48;13.73;;;7.72;;
75593;SDS011;64176;49.156;7.810;2023-11-21T16:06:34;14.77;;;8.10;;
75593;SDS011;64176;49.156;7.810;2023-11-21T16:09:22;12.95;;;8.70;;
75593;SDS011;64176;49.156;7.810;2023-11-21T16:12:14;10.55;;;6.50;;
75593;SDS011;64176;49.156;7.810;2023-11-21T16:14:57;14.13;;;6.82;;
75593;SDS011;64176;49.156;7.810;2023-11-21T16:17:44;9.20;;;7.03;;
75593;SDS011;64176;49.156;7.810;2023-11-21T16:20:28;14.15;;;6.22;;
75593;SDS011;64176;49.156;7.810;2023-11-21T16:23:15;15.55;;;9.38;;
75593;SDS011;64176;49.156;7.810;2023-11-21T16:26:00;11.55;;;7.40;;
75593;SDS011;64176;49.156;7.810;2023-11-21T16:28:44;15.35;;;8.73;;
75593;SDS011;64176;49.156;7.810;2023-11-21T16:31:27;90.90;;;35.20;;
75593;SDS011;64176;49.156;7.810;2023-11-21T16:34:16;104.57;;;44.75;;
75593;SDS011;64176;49.156;7.810;2023-11-21T16:37:01;49.15;;;21.45;;
75593;SDS011;64176;49.156;7.810;2023-11-21T16:39:49;37.40;;;16.80;;
75593;SDS011;64176;49.156;7.810;2023-11-21T16:42:33;24.55;;;11.23;;
75593;SDS011;64176;49.156;7.810;2023-11-21T16:45:18;22.70;;;10.07;;
75593;SDS011;64176;49.156;7.810;2023-11-21T16:48:03;17.85;;;11.70;;
75593;SDS011;64176;49.156;7.810;2023-11-21T16:50:47;18.38;;;10.27;;
75593;SDS011;64176;49.156;7.810;2023-11-21T16:53:34;20.48;;;12.98;;
75593;SDS011;64176;49.156;7.810;2023-11-21T16:56:18;18.83;;;12.82;;